sensor_id;sensor_type;location;lat;lon;timestamp;temperature;humidity
29431;DHT22;16404;49.902;10.074;2024-03-29T00:01:24;8.80;57.60
29431;DHT22;16404;49.902;10.074;2024-03-29T00:04:08;8.80;57.50
29431;DHT22;16404;49.902;10.074;2024-03-29T00:06:53;8.80;57.50
29431;DHT22;16404;49.902;10.074;2024-03-29T00:09:37;8.80;57.50
29431;DHT22;16404;49.902;10.074;2024-03-29T00:12:22;8.80;57.60
29431;DHT22;16404;49.902;10.074;2024-03-29T00:15:06;8.80;57.70
29431;DHT22;16404;49.902;10.074;2024-03-29T00:17:51;8.80;57.80
29431;DHT22;16404;49.902;10.074;2024-03-29T00:20:36;8.70;57.80
29431;DHT22;16404;49.902;10.074;2024-03-29T00:23:21;8.70;57.90
29431;DHT22;16404;49.902;10.074;2024-03-29T00:26:05;8.70;58.10
29431;DHT22;16404;49.902;10.074;2024-03-29T00:28:51;8.70;58.10
29431;DHT22;16404;49.902;10.074;2024-03-29T00:31:35;8.70;58.00
29431;DHT22;16404;49.902;10.074;2024-03-29T00:34:20;8.70;57.90
29431;DHT22;16404;49.902;10.074;2024-03-29T00:37:05;8.70;57.80
29431;DHT22;16404;49.902;10.074;2024-03-29T00:39:50;8.70;57.80
29431;DHT22;16404;49.902;10.074;2024-03-29T00:42:34;8.70;57.70
29431;DHT22;16404;49.902;10.074;2024-03-29T00:45:19;8.70;57.50
29431;DHT22;16404;49.902;10.074;2024-03-29T00:48:04;8.70;57.50
29431;DHT22;16404;49.902;10.074;2024-03-29T00:50:50;8.70;57.50
29431;DHT22;16404;49.902;10.074;2024-03-29T00:53:34;8.60;57.40
29431;DHT22;16404;49.902;10.074;2024-03-29T00:56:19;8.50;57.30
29431;DHT22;16404;49.902;10.074;2024-03-29T00:59:03;8.50;57.40
29431;DHT22;16404;49.902;10.074;2024-03-29T01:01:49;8.50;57.50
29431;DHT22;16404;49.902;10.074;2024-03-29T01:04:34;8.50;57.50
29431;DHT22;16404;49.902;10.074;2024-03-29T01:07:18;8.60;57.40
29431;DHT22;16404;49.902;10.074;2024-03-29T01:10:03;8.60;57.20
29431;DHT22;16404;49.902;10.074;2024-03-29T01:12:47;8.50;57.20
29431;DHT22;16404;49.902;10.074;2024-03-29T01:15:32;8.60;57.10
29431;DHT22;16404;49.902;10.074;2024-03-29T01:18:17;8.60;57.20
29431;DHT22;16404;49.902;10.074;2024-03-29T01:21:01;8.60;57.20
29431;DHT22;16404;49.902;10.074;2024-03-29T01:23:46;8.50;57.10
29431;DHT22;16404;49.902;10.074;2024-03-29T01:26:31;8.50;57.40
29431;DHT22;16404;49.902;10.074;2024-03-29T01:29:15;8.50;57.20
29431;DHT22;16404;49.902;10.074;2024-03-29T01:32:01;8.50;57.30
29431;DHT22;16404;49.902;10.074;2024-03-29T01:34:45;8.50;57.50
29431;DHT22;16404;49.902;10.074;2024-03-29T01:37:30;8.60;57.50
29431;DHT22;16404;49.902;10.074;2024-03-29T01:40:14;8.60;57.30
29431;DHT22;16404;49.902;10.074;2024-03-29T01:43:01;8.70;57.50
29431;DHT22;16404;49.902;10.074;2024-03-29T01:45:48;8.70;58.00
29431;DHT22;16404;49.902;10.074;2024-03-29T01:48:33;8.80;57.30
29431;DHT22;16404;49.902;10.074;2024-03-29T01:51:18;8.80;57.10
29431;DHT22;16404;49.902;10.074;2024-03-29T01:54:04;8.80;57.10
29431;DHT22;16404;49.902;10.074;2024-03-29T01:56:49;8.80;57.00
29431;DHT22;16404;49.902;10.074;2024-03-29T01:59:34;8.90;57.20
29431;DHT22;16404;49.902;10.074;2024-03-29T02:02:19;8.80;57.20
29431;DHT22;16404;49.902;10.074;2024-03-29T02:05:03;8.90;57.20
29431;DHT22;16404;49.902;10.074;2024-03-29T02:07:48;8.90;57.00
29431;DHT22;16404;49.902;10.074;2024-03-29T02:10:34;9.00;57.00
29431;DHT22;16404;49.902;10.074;2024-03-29T02:13:18;9.00;57.10
29431;DHT22;16404;49.902;10.074;2024-03-29T02:16:03;9.10;57.00
29431;DHT22;16404;49.902;10.074;2024-03-29T02:18:48;9.10;56.90
29431;DHT22;16404;49.902;10.074;2024-03-29T02:21:36;9.10;56.80
29431;DHT22;16404;49.902;10.074;2024-03-29T02:24:22;9.10;56.50
29431;DHT22;16404;49.902;10.074;2024-03-29T02:27:06;9.10;56.40
29431;DHT22;16404;49.902;10.074;2024-03-29T02:29:51;9.20;57.10
29431;DHT22;16404;49.902;10.074;2024-03-29T02:32:35;9.20;56.50
29431;DHT22;16404;49.902;10.074;2024-03-29T02:35:20;9.20;56.30
29431;DHT22;16404;49.902;10.074;2024-03-29T02:38:04;9.20;56.30
29431;DHT22;16404;49.902;10.074;2024-03-29T02:40:49;9.20;56.20
29431;DHT22;16404;49.902;10.074;2024-03-29T02:43:34;9.20;56.00
29431;DHT22;16404;49.902;10.074;2024-03-29T02:46:19;9.20;56.00
29431;DHT22;16404;49.902;10.074;2024-03-29T02:49:03;9.30;56.00
29431;DHT22;16404;49.902;10.074;2024-03-29T02:51:48;9.30;55.80
29431;DHT22;16404;49.902;10.074;2024-03-29T02:54:35;9.40;56.40
29431;DHT22;16404;49.902;10.074;2024-03-29T02:57:19;9.40;55.70
29431;DHT22;16404;49.902;10.074;2024-03-29T03:00:08;9.40;55.90
29431;DHT22;16404;49.902;10.074;2024-03-29T03:02:55;9.40;55.90
29431;DHT22;16404;49.902;10.074;2024-03-29T03:05:40;9.40;55.90
29431;DHT22;16404;49.902;10.074;2024-03-29T03:08:25;9.50;56.00
29431;DHT22;16404;49.902;10.074;2024-03-29T03:11:28;9.50;56.00
29431;DHT22;16404;49.902;10.074;2024-03-29T03:14:12;9.60;56.20
29431;DHT22;16404;49.902;10.074;2024-03-29T03:16:57;9.60;56.20
29431;DHT22;16404;49.902;10.074;2024-03-29T03:19:42;9.70;56.20
29431;DHT22;16404;49.902;10.074;2024-03-29T03:22:26;9.70;56.20
29431;DHT22;16404;49.902;10.074;2024-03-29T03:25:11;9.80;56.10
29431;DHT22;16404;49.902;10.074;2024-03-29T03:27:55;9.90;56.10
29431;DHT22;16404;49.902;10.074;2024-03-29T03:30:40;9.90;56.00
29431;DHT22;16404;49.902;10.074;2024-03-29T03:33:25;9.90;55.90
29431;DHT22;16404;49.902;10.074;2024-03-29T03:36:10;10.10;55.80
29431;DHT22;16404;49.902;10.074;2024-03-29T03:38:54;10.10;55.50
29431;DHT22;16404;49.902;10.074;2024-03-29T03:41:39;10.10;55.70
29431;DHT22;16404;49.902;10.074;2024-03-29T03:44:24;10.10;55.90
29431;DHT22;16404;49.902;10.074;2024-03-29T03:47:09;10.20;55.90
29431;DHT22;16404;49.902;10.074;2024-03-29T03:49:53;10.20;55.80
29431;DHT22;16404;49.902;10.074;2024-03-29T03:52:38;10.20;55.80
29431;DHT22;16404;49.902;10.074;2024-03-29T03:55:23;10.20;55.80
29431;DHT22;16404;49.902;10.074;2024-03-29T03:58:08;10.30;55.90
29431;DHT22;16404;49.902;10.074;2024-03-29T04:00:52;10.30;55.80
29431;DHT22;16404;49.902;10.074;2024-03-29T04:03:37;10.40;55.50
29431;DHT22;16404;49.902;10.074;2024-03-29T04:06:21;10.40;55.50
29431;DHT22;16404;49.902;10.074;2024-03-29T04:09:06;10.40;55.60
29431;DHT22;16404;49.902;10.074;2024-03-29T04:11:50;10.50;55.80
29431;DHT22;16404;49.902;10.074;2024-03-29T04:14:35;10.50;55.80
29431;DHT22;16404;49.902;10.074;2024-03-29T04:17:23;10.50;55.80
29431;DHT22;16404;49.902;10.074;2024-03-29T04:20:07;10.50;56.00
29431;DHT22;16404;49.902;10.074;2024-03-29T04:22:52;10.50;56.10
29431;DHT22;16404;49.902;10.074;2024-03-29T04:25:36;10.60;55.90
29431;DHT22;16404;49.902;10.074;2024-03-29T04:28:21;10.60;55.50
29431;DHT22;16404;49.902;10.074;2024-03-29T04:31:06;10.60;55.60
29431;DHT22;16404;49.902;10.074;2024-03-29T04:33:50;10.60;55.60
29431;DHT22;16404;49.902;10.074;2024-03-29T04:36:35;10.70;55.60
29431;DHT22;16404;49.902;10.074;2024-03-29T04:39:19;10.70;55.50
29431;DHT22;16404;49.902;10.074;2024-03-29T04:42:04;10.80;55.40
29431;DHT22;16404;49.902;10.074;2024-03-29T04:44:49;10.90;55.20
29431;DHT22;16404;49.902;10.074;2024-03-29T04:47:33;10.90;55.10
29431;DHT22;16404;49.902;10.074;2024-03-29T04:50:18;10.90;55.10
29431;DHT22;16404;49.902;10.074;2024-03-29T04:53:02;10.90;55.30
29431;DHT22;16404;49.902;10.074;2024-03-29T04:55:53;11.00;55.30
29431;DHT22;16404;49.902;10.074;2024-03-29T04:58:38;11.00;55.30
29431;DHT22;16404;49.902;10.074;2024-03-29T05:01:22;11.10;55.00
29431;DHT22;16404;49.902;10.074;2024-03-29T05:04:07;11.10;54.90
29431;DHT22;16404;49.902;10.074;2024-03-29T05:06:53;11.20;54.90
29431;DHT22;16404;49.902;10.074;2024-03-29T05:09:37;11.20;54.90
29431;DHT22;16404;49.902;10.074;2024-03-29T05:12:22;11.30;54.80
29431;DHT22;16404;49.902;10.074;2024-03-29T05:15:07;11.40;54.80
29431;DHT22;16404;49.902;10.074;2024-03-29T05:17:51;11.40;54.70
29431;DHT22;16404;49.902;10.074;2024-03-29T05:20:35;11.50;54.90
29431;DHT22;16404;49.902;10.074;2024-03-29T05:23:20;11.50;55.00
29431;DHT22;16404;49.902;10.074;2024-03-29T05:26:05;11.50;55.10
29431;DHT22;16404;49.902;10.074;2024-03-29T05:28:49;11.50;55.30
29431;DHT22;16404;49.902;10.074;2024-03-29T05:31:34;11.50;55.50
29431;DHT22;16404;49.902;10.074;2024-03-29T05:34:19;11.50;55.80
29431;DHT22;16404;49.902;10.074;2024-03-29T05:37:03;11.50;55.90
29431;DHT22;16404;49.902;10.074;2024-03-29T05:39:49;11.50;56.10
29431;DHT22;16404;49.902;10.074;2024-03-29T05:42:33;11.50;56.40
29431;DHT22;16404;49.902;10.074;2024-03-29T05:45:29;11.40;56.60
29431;DHT22;16404;49.902;10.074;2024-03-29T05:48:13;11.40;57.10
29431;DHT22;16404;49.902;10.074;2024-03-29T05:50:58;11.40;57.30
29431;DHT22;16404;49.902;10.074;2024-03-29T05:53:43;11.30;57.50
29431;DHT22;16404;49.902;10.074;2024-03-29T05:56:27;11.30;57.90
29431;DHT22;16404;49.902;10.074;2024-03-29T05:59:12;11.40;57.70
29431;DHT22;16404;49.902;10.074;2024-03-29T06:01:56;11.30;57.70
29431;DHT22;16404;49.902;10.074;2024-03-29T06:04:41;11.30;57.90
29431;DHT22;16404;49.902;10.074;2024-03-29T06:07:26;11.40;58.10
29431;DHT22;16404;49.902;10.074;2024-03-29T06:10:13;11.40;58.20
29431;DHT22;16404;49.902;10.074;2024-03-29T06:12:58;11.40;58.30
29431;DHT22;16404;49.902;10.074;2024-03-29T06:15:51;11.40;58.40
29431;DHT22;16404;49.902;10.074;2024-03-29T06:18:54;11.50;58.70
29431;DHT22;16404;49.902;10.074;2024-03-29T06:21:39;11.50;58.70
29431;DHT22;16404;49.902;10.074;2024-03-29T06:24:23;11.50;58.90
29431;DHT22;16404;49.902;10.074;2024-03-29T06:27:08;11.50;58.90
29431;DHT22;16404;49.902;10.074;2024-03-29T06:29:53;11.50;59.00
29431;DHT22;16404;49.902;10.074;2024-03-29T06:32:37;11.50;59.10
29431;DHT22;16404;49.902;10.074;2024-03-29T06:35:22;11.60;59.20
29431;DHT22;16404;49.902;10.074;2024-03-29T06:38:06;11.60;59.30
29431;DHT22;16404;49.902;10.074;2024-03-29T06:40:51;11.60;59.30
29431;DHT22;16404;49.902;10.074;2024-03-29T06:43:35;11.60;59.30
29431;DHT22;16404;49.902;10.074;2024-03-29T06:46:20;11.80;59.40
29431;DHT22;16404;49.902;10.074;2024-03-29T06:49:04;11.80;59.30
29431;DHT22;16404;49.902;10.074;2024-03-29T06:51:49;11.80;59.30
29431;DHT22;16404;49.902;10.074;2024-03-29T06:54:34;11.90;59.50
29431;DHT22;16404;49.902;10.074;2024-03-29T06:57:18;11.90;59.70
29431;DHT22;16404;49.902;10.074;2024-03-29T07:00:07;11.90;59.70
29431;DHT22;16404;49.902;10.074;2024-03-29T07:02:53;11.90;60.00
29431;DHT22;16404;49.902;10.074;2024-03-29T07:05:37;12.00;60.40
29431;DHT22;16404;49.902;10.074;2024-03-29T07:08:22;12.10;60.40
29431;DHT22;16404;49.902;10.074;2024-03-29T07:11:07;12.20;60.30
29431;DHT22;16404;49.902;10.074;2024-03-29T07:13:51;12.30;59.90
29431;DHT22;16404;49.902;10.074;2024-03-29T07:16:36;12.40;59.70
29431;DHT22;16404;49.902;10.074;2024-03-29T07:19:21;12.40;59.50
29431;DHT22;16404;49.902;10.074;2024-03-29T07:22:06;12.50;59.50
29431;DHT22;16404;49.902;10.074;2024-03-29T07:24:50;12.50;59.60
29431;DHT22;16404;49.902;10.074;2024-03-29T07:27:35;12.50;60.00
29431;DHT22;16404;49.902;10.074;2024-03-29T07:30:20;12.60;60.10
29431;DHT22;16404;49.902;10.074;2024-03-29T07:33:05;12.70;60.00
29431;DHT22;16404;49.902;10.074;2024-03-29T07:35:49;12.80;59.70
29431;DHT22;16404;49.902;10.074;2024-03-29T07:38:33;12.80;59.50
29431;DHT22;16404;49.902;10.074;2024-03-29T07:41:18;12.90;59.20
29431;DHT22;16404;49.902;10.074;2024-03-29T07:44:03;12.90;59.00
29431;DHT22;16404;49.902;10.074;2024-03-29T07:46:48;12.90;59.00
29431;DHT22;16404;49.902;10.074;2024-03-29T07:49:32;13.00;58.80
29431;DHT22;16404;49.902;10.074;2024-03-29T07:52:17;13.00;58.40
29431;DHT22;16404;49.902;10.074;2024-03-29T07:55:03;13.10;58.70
29431;DHT22;16404;49.902;10.074;2024-03-29T07:57:48;13.10;58.90
29431;DHT22;16404;49.902;10.074;2024-03-29T08:00:33;13.10;59.00
29431;DHT22;16404;49.902;10.074;2024-03-29T08:03:18;13.10;58.60
29431;DHT22;16404;49.902;10.074;2024-03-29T08:06:03;13.20;59.20
29431;DHT22;16404;49.902;10.074;2024-03-29T08:08:51;13.20;58.60
29431;DHT22;16404;49.902;10.074;2024-03-29T08:11:35;13.30;58.40
29431;DHT22;16404;49.902;10.074;2024-03-29T08:14:20;13.30;57.80
29431;DHT22;16404;49.902;10.074;2024-03-29T08:17:04;13.30;57.50
29431;DHT22;16404;49.902;10.074;2024-03-29T08:19:53;13.30;57.80
29431;DHT22;16404;49.902;10.074;2024-03-29T08:22:38;13.30;57.60
29431;DHT22;16404;49.902;10.074;2024-03-29T08:25:22;13.40;57.60
29431;DHT22;16404;49.902;10.074;2024-03-29T08:28:07;13.40;57.50
29431;DHT22;16404;49.902;10.074;2024-03-29T08:31:03;13.30;57.10
29431;DHT22;16404;49.902;10.074;2024-03-29T08:33:47;13.30;57.00
29431;DHT22;16404;49.902;10.074;2024-03-29T08:36:32;13.40;57.00
29431;DHT22;16404;49.902;10.074;2024-03-29T08:39:17;13.40;57.00
29431;DHT22;16404;49.902;10.074;2024-03-29T08:42:01;13.50;57.10
29431;DHT22;16404;49.902;10.074;2024-03-29T08:44:49;13.60;56.70
29431;DHT22;16404;49.902;10.074;2024-03-29T08:47:34;13.60;56.70
29431;DHT22;16404;49.902;10.074;2024-03-29T08:50:18;13.60;56.50
29431;DHT22;16404;49.902;10.074;2024-03-29T08:53:03;13.60;56.40
29431;DHT22;16404;49.902;10.074;2024-03-29T08:55:48;13.70;56.40
29431;DHT22;16404;49.902;10.074;2024-03-29T08:58:33;13.70;56.60
29431;DHT22;16404;49.902;10.074;2024-03-29T09:01:17;13.80;57.00
29431;DHT22;16404;49.902;10.074;2024-03-29T09:04:02;13.80;57.30
29431;DHT22;16404;49.902;10.074;2024-03-29T09:06:48;13.70;57.70
29431;DHT22;16404;49.902;10.074;2024-03-29T09:09:33;13.70;58.30
29431;DHT22;16404;49.902;10.074;2024-03-29T09:12:17;13.50;58.00
29431;DHT22;16404;49.902;10.074;2024-03-29T09:15:02;13.50;57.50
29431;DHT22;16404;49.902;10.074;2024-03-29T09:17:47;13.50;57.80
29431;DHT22;16404;49.902;10.074;2024-03-29T09:20:31;13.70;57.90
29431;DHT22;16404;49.902;10.074;2024-03-29T09:23:16;13.70;58.00
29431;DHT22;16404;49.902;10.074;2024-03-29T09:26:04;13.70;58.20
29431;DHT22;16404;49.902;10.074;2024-03-29T09:28:49;13.80;58.30
29431;DHT22;16404;49.902;10.074;2024-03-29T09:31:34;13.80;58.40
29431;DHT22;16404;49.902;10.074;2024-03-29T09:34:18;13.80;58.50
29431;DHT22;16404;49.902;10.074;2024-03-29T09:37:03;13.80;58.80
29431;DHT22;16404;49.902;10.074;2024-03-29T09:39:48;13.70;59.00
29431;DHT22;16404;49.902;10.074;2024-03-29T09:42:33;13.80;59.20
29431;DHT22;16404;49.902;10.074;2024-03-29T09:45:19;13.80;59.30
29431;DHT22;16404;49.902;10.074;2024-03-29T09:48:06;13.90;59.60
29431;DHT22;16404;49.902;10.074;2024-03-29T09:50:52;14.00;59.80
29431;DHT22;16404;49.902;10.074;2024-03-29T09:53:39;14.00;60.00
29431;DHT22;16404;49.902;10.074;2024-03-29T09:56:25;14.00;60.20
29431;DHT22;16404;49.902;10.074;2024-03-29T09:59:10;14.10;60.50
29431;DHT22;16404;49.902;10.074;2024-03-29T10:01:55;14.00;60.60
29431;DHT22;16404;49.902;10.074;2024-03-29T10:04:40;14.00;60.70
29431;DHT22;16404;49.902;10.074;2024-03-29T10:07:26;14.00;60.70
29431;DHT22;16404;49.902;10.074;2024-03-29T10:10:12;14.00;60.80
29431;DHT22;16404;49.902;10.074;2024-03-29T10:12:56;14.00;60.80
29431;DHT22;16404;49.902;10.074;2024-03-29T10:15:41;14.00;60.70
29431;DHT22;16404;49.902;10.074;2024-03-29T10:18:31;14.00;60.70
29431;DHT22;16404;49.902;10.074;2024-03-29T10:21:16;14.00;60.90
29431;DHT22;16404;49.902;10.074;2024-03-29T10:24:11;14.00;60.90
29431;DHT22;16404;49.902;10.074;2024-03-29T10:26:55;14.00;61.30
29431;DHT22;16404;49.902;10.074;2024-03-29T10:29:40;14.00;61.20
29431;DHT22;16404;49.902;10.074;2024-03-29T10:32:24;14.00;61.40
29431;DHT22;16404;49.902;10.074;2024-03-29T10:35:09;14.00;61.60
29431;DHT22;16404;49.902;10.074;2024-03-29T10:37:54;14.10;61.70
29431;DHT22;16404;49.902;10.074;2024-03-29T10:40:39;14.10;61.80
29431;DHT22;16404;49.902;10.074;2024-03-29T10:43:27;14.10;61.80
29431;DHT22;16404;49.902;10.074;2024-03-29T10:46:12;14.20;61.60
29431;DHT22;16404;49.902;10.074;2024-03-29T10:48:57;14.20;61.60
29431;DHT22;16404;49.902;10.074;2024-03-29T10:51:42;14.30;61.90
29431;DHT22;16404;49.902;10.074;2024-03-29T10:54:27;14.30;62.20
29431;DHT22;16404;49.902;10.074;2024-03-29T10:57:26;14.40;62.50
29431;DHT22;16404;49.902;10.074;2024-03-29T11:00:12;14.40;62.80
29431;DHT22;16404;49.902;10.074;2024-03-29T11:05:55;14.60;62.70
29431;DHT22;16404;49.902;10.074;2024-03-29T11:08:44;14.80;62.60
29431;DHT22;16404;49.902;10.074;2024-03-29T11:11:30;14.90;62.50
29431;DHT22;16404;49.902;10.074;2024-03-29T11:14:26;14.90;62.50
29431;DHT22;16404;49.902;10.074;2024-03-29T11:17:14;15.00;62.50
29431;DHT22;16404;49.902;10.074;2024-03-29T11:19:58;15.00;62.20
29431;DHT22;16404;49.902;10.074;2024-03-29T11:22:43;15.10;62.00
29431;DHT22;16404;49.902;10.074;2024-03-29T11:25:37;15.20;61.80
29431;DHT22;16404;49.902;10.074;2024-03-29T11:31:14;15.30;62.10
29431;DHT22;16404;49.902;10.074;2024-03-29T11:33:58;15.40;62.00
29431;DHT22;16404;49.902;10.074;2024-03-29T11:36:45;15.40;61.70
29431;DHT22;16404;49.902;10.074;2024-03-29T11:39:29;15.50;61.40
29431;DHT22;16404;49.902;10.074;2024-03-29T11:42:17;15.60;61.50
29431;DHT22;16404;49.902;10.074;2024-03-29T11:45:01;15.70;61.20
29431;DHT22;16404;49.902;10.074;2024-03-29T11:47:46;15.70;61.30
29431;DHT22;16404;49.902;10.074;2024-03-29T11:50:31;15.80;61.30
29431;DHT22;16404;49.902;10.074;2024-03-29T11:53:15;15.80;61.20
29431;DHT22;16404;49.902;10.074;2024-03-29T11:56:01;15.70;61.00
29431;DHT22;16404;49.902;10.074;2024-03-29T11:58:48;15.70;61.10
29431;DHT22;16404;49.902;10.074;2024-03-29T12:01:33;15.70;61.50
29431;DHT22;16404;49.902;10.074;2024-03-29T12:04:21;15.60;61.30
29431;DHT22;16404;49.902;10.074;2024-03-29T12:07:06;15.70;61.10
29431;DHT22;16404;49.902;10.074;2024-03-29T12:09:51;15.60;60.90
29431;DHT22;16404;49.902;10.074;2024-03-29T12:12:36;15.60;60.90
29431;DHT22;16404;49.902;10.074;2024-03-29T12:15:23;15.50;60.80
29431;DHT22;16404;49.902;10.074;2024-03-29T12:18:08;15.40;61.60
29431;DHT22;16404;49.902;10.074;2024-03-29T12:20:53;15.30;62.00
29431;DHT22;16404;49.902;10.074;2024-03-29T12:23:38;15.20;62.20
29431;DHT22;16404;49.902;10.074;2024-03-29T12:26:23;15.20;62.40
29431;DHT22;16404;49.902;10.074;2024-03-29T12:29:08;15.20;62.60
29431;DHT22;16404;49.902;10.074;2024-03-29T12:31:58;15.20;62.60
29431;DHT22;16404;49.902;10.074;2024-03-29T12:34:42;15.20;62.90
29431;DHT22;16404;49.902;10.074;2024-03-29T12:37:27;15.30;62.90
29431;DHT22;16404;49.902;10.074;2024-03-29T12:40:13;15.40;62.80
29431;DHT22;16404;49.902;10.074;2024-03-29T12:43:02;15.40;62.70
29431;DHT22;16404;49.902;10.074;2024-03-29T12:45:48;15.50;62.70
29431;DHT22;16404;49.902;10.074;2024-03-29T12:48:35;15.60;62.50
29431;DHT22;16404;49.902;10.074;2024-03-29T12:51:20;15.60;62.50
29431;DHT22;16404;49.902;10.074;2024-03-29T12:54:06;15.70;62.40
29431;DHT22;16404;49.902;10.074;2024-03-29T12:56:52;15.70;62.30
29431;DHT22;16404;49.902;10.074;2024-03-29T12:59:37;15.80;62.00
29431;DHT22;16404;49.902;10.074;2024-03-29T13:02:21;15.80;61.90
29431;DHT22;16404;49.902;10.074;2024-03-29T13:05:07;15.90;62.10
29431;DHT22;16404;49.902;10.074;2024-03-29T13:07:52;15.90;62.40
29431;DHT22;16404;49.902;10.074;2024-03-29T13:10:37;15.90;63.30
29431;DHT22;16404;49.902;10.074;2024-03-29T13:13:23;16.00;62.30
29431;DHT22;16404;49.902;10.074;2024-03-29T13:16:07;16.10;61.70
29431;DHT22;16404;49.902;10.074;2024-03-29T13:18:52;16.10;61.40
29431;DHT22;16404;49.902;10.074;2024-03-29T13:21:36;16.10;61.90
29431;DHT22;16404;49.902;10.074;2024-03-29T13:24:21;16.10;62.30
29431;DHT22;16404;49.902;10.074;2024-03-29T13:27:05;16.10;62.50
29431;DHT22;16404;49.902;10.074;2024-03-29T13:29:50;16.20;62.60
29431;DHT22;16404;49.902;10.074;2024-03-29T13:32:35;16.20;62.60
29431;DHT22;16404;49.902;10.074;2024-03-29T13:35:21;16.30;62.80
29431;DHT22;16404;49.902;10.074;2024-03-29T13:38:08;16.30;63.00
29431;DHT22;16404;49.902;10.074;2024-03-29T13:40:53;16.40;63.20
29431;DHT22;16404;49.902;10.074;2024-03-29T13:43:37;16.50;63.00
29431;DHT22;16404;49.902;10.074;2024-03-29T13:46:26;16.60;62.60
29431;DHT22;16404;49.902;10.074;2024-03-29T13:49:10;16.60;62.30
29431;DHT22;16404;49.902;10.074;2024-03-29T13:51:56;16.70;62.30
29431;DHT22;16404;49.902;10.074;2024-03-29T13:54:43;16.80;62.20
29431;DHT22;16404;49.902;10.074;2024-03-29T13:57:29;16.80;62.40
29431;DHT22;16404;49.902;10.074;2024-03-29T14:00:14;16.90;62.60
29431;DHT22;16404;49.902;10.074;2024-03-29T14:03:00;17.00;62.60
29431;DHT22;16404;49.902;10.074;2024-03-29T14:05:45;17.10;62.60
29431;DHT22;16404;49.902;10.074;2024-03-29T14:08:30;17.20;62.20
29431;DHT22;16404;49.902;10.074;2024-03-29T14:11:14;17.20;61.80
29431;DHT22;16404;49.902;10.074;2024-03-29T14:14:02;17.20;61.60
29431;DHT22;16404;49.902;10.074;2024-03-29T14:16:47;17.10;61.50
29431;DHT22;16404;49.902;10.074;2024-03-29T14:19:33;17.10;61.50
29431;DHT22;16404;49.902;10.074;2024-03-29T14:22:17;17.10;61.80
29431;DHT22;16404;49.902;10.074;2024-03-29T14:25:04;17.00;61.80
29431;DHT22;16404;49.902;10.074;2024-03-29T14:27:49;17.00;61.90
29431;DHT22;16404;49.902;10.074;2024-03-29T14:30:39;17.00;62.00
29431;DHT22;16404;49.902;10.074;2024-03-29T14:33:23;16.90;62.30
29431;DHT22;16404;49.902;10.074;2024-03-29T14:36:08;17.00;62.70
29431;DHT22;16404;49.902;10.074;2024-03-29T14:38:52;16.90;62.80
29431;DHT22;16404;49.902;10.074;2024-03-29T14:41:39;16.90;63.00
29431;DHT22;16404;49.902;10.074;2024-03-29T14:44:24;16.90;63.20
29431;DHT22;16404;49.902;10.074;2024-03-29T14:47:08;17.00;63.20
29431;DHT22;16404;49.902;10.074;2024-03-29T14:49:52;16.90;63.00
29431;DHT22;16404;49.902;10.074;2024-03-29T14:52:38;16.80;63.40
29431;DHT22;16404;49.902;10.074;2024-03-29T14:55:22;16.80;63.70
29431;DHT22;16404;49.902;10.074;2024-03-29T14:58:07;16.90;63.60
29431;DHT22;16404;49.902;10.074;2024-03-29T15:00:52;16.90;63.60
29431;DHT22;16404;49.902;10.074;2024-03-29T15:03:37;16.80;64.00
29431;DHT22;16404;49.902;10.074;2024-03-29T15:06:21;16.90;63.80
29431;DHT22;16404;49.902;10.074;2024-03-29T15:09:08;17.00;63.70
29431;DHT22;16404;49.902;10.074;2024-03-29T15:11:52;17.00;64.00
29431;DHT22;16404;49.902;10.074;2024-03-29T15:14:38;17.10;64.90
29431;DHT22;16404;49.902;10.074;2024-03-29T15:17:22;17.10;64.20
29431;DHT22;16404;49.902;10.074;2024-03-29T15:20:07;17.20;64.20
29431;DHT22;16404;49.902;10.074;2024-03-29T15:22:53;17.40;64.30
29431;DHT22;16404;49.902;10.074;2024-03-29T15:25:38;17.40;64.00
29431;DHT22;16404;49.902;10.074;2024-03-29T15:28:24;17.50;63.80
29431;DHT22;16404;49.902;10.074;2024-03-29T15:31:27;17.50;63.70
29431;DHT22;16404;49.902;10.074;2024-03-29T15:34:12;17.50;63.50
29431;DHT22;16404;49.902;10.074;2024-03-29T15:36:57;17.60;63.30
29431;DHT22;16404;49.902;10.074;2024-03-29T15:39:41;17.60;62.80
29431;DHT22;16404;49.902;10.074;2024-03-29T15:42:26;17.60;62.50
29431;DHT22;16404;49.902;10.074;2024-03-29T15:45:10;17.60;62.20
29431;DHT22;16404;49.902;10.074;2024-03-29T15:47:55;17.60;62.30
29431;DHT22;16404;49.902;10.074;2024-03-29T15:50:40;17.60;62.30
29431;DHT22;16404;49.902;10.074;2024-03-29T15:53:25;17.60;62.30
29431;DHT22;16404;49.902;10.074;2024-03-29T15:56:09;17.60;62.20
29431;DHT22;16404;49.902;10.074;2024-03-29T15:58:53;17.60;62.40
29431;DHT22;16404;49.902;10.074;2024-03-29T16:01:38;17.60;62.50
29431;DHT22;16404;49.902;10.074;2024-03-29T16:04:22;17.60;62.50
29431;DHT22;16404;49.902;10.074;2024-03-29T16:07:09;17.60;62.60
29431;DHT22;16404;49.902;10.074;2024-03-29T16:09:53;17.60;62.60
29431;DHT22;16404;49.902;10.074;2024-03-29T16:12:39;17.60;62.40
29431;DHT22;16404;49.902;10.074;2024-03-29T16:15:25;17.60;62.50
29431;DHT22;16404;49.902;10.074;2024-03-29T16:18:09;17.50;62.60
29431;DHT22;16404;49.902;10.074;2024-03-29T16:20:55;17.50;62.60
29431;DHT22;16404;49.902;10.074;2024-03-29T16:23:40;17.50;62.70
29431;DHT22;16404;49.902;10.074;2024-03-29T16:26:25;17.50;62.60
29431;DHT22;16404;49.902;10.074;2024-03-29T16:29:10;17.50;62.60
29431;DHT22;16404;49.902;10.074;2024-03-29T16:31:58;17.50;62.50
29431;DHT22;16404;49.902;10.074;2024-03-29T16:34:42;17.40;62.50
29431;DHT22;16404;49.902;10.074;2024-03-29T16:37:27;17.40;62.50
29431;DHT22;16404;49.902;10.074;2024-03-29T16:40:12;17.40;62.60
29431;DHT22;16404;49.902;10.074;2024-03-29T16:42:57;17.40;62.80
29431;DHT22;16404;49.902;10.074;2024-03-29T16:45:42;17.30;62.60
29431;DHT22;16404;49.902;10.074;2024-03-29T16:48:26;17.30;62.60
29431;DHT22;16404;49.902;10.074;2024-03-29T16:51:11;17.20;62.40
29431;DHT22;16404;49.902;10.074;2024-03-29T16:53:56;17.20;62.40
29431;DHT22;16404;49.902;10.074;2024-03-29T16:56:41;17.20;62.40
29431;DHT22;16404;49.902;10.074;2024-03-29T16:59:27;17.10;62.30
29431;DHT22;16404;49.902;10.074;2024-03-29T17:02:12;17.10;62.30
29431;DHT22;16404;49.902;10.074;2024-03-29T17:04:57;17.00;62.20
29431;DHT22;16404;49.902;10.074;2024-03-29T17:07:41;17.00;62.20
29431;DHT22;16404;49.902;10.074;2024-03-29T17:10:26;17.00;62.20
29431;DHT22;16404;49.902;10.074;2024-03-29T17:13:10;17.00;62.10
29431;DHT22;16404;49.902;10.074;2024-03-29T17:15:55;16.90;61.90
29431;DHT22;16404;49.902;10.074;2024-03-29T17:18:40;16.80;61.90